Time;durP1;ratioP1;P1;durP2;ratioP2;P2;SDS_P1;SDS_P2;PMS_P1;PMS_P2;Temp;Humidity;BMP_temperature;BMP_pressure;BME280_temperature;BME280_humidity;BME280_pressure;Samples;Min_cycle;Max_cycle;Signal;HPM_P1;HPM_P2
2023/03/09 00:02:51;;;;;;;;;;;;;;;14.64;53.63;99612.44;5036063;28;19913;-80
2023/03/09 00:05:41;;;;;;;;;;;;;;;14.59;53.75;99610.03;5039642;28;19913;-79
2023/03/09 00:08:33;;;;;;;;;;;;;;;14.61;53.52;99610.47;5037434;28;19917;-79
2023/03/09 00:11:25;;;;;;;;;;;;;;;14.58;53.43;99600.22;5033852;28;19913;-79
2023/03/09 00:14:18;;;;;;;;;;;;;;;14.57;53.11;99600.63;5037664;28;19921;-79
2023/03/09 00:17:10;;;;;;;;;;;;;;;14.56;52.82;99605.31;5036101;28;19917;-80
2023/03/09 00:20:17;;;;;;;;;;;;;;;14.53;52.58;99615.03;5042045;28;19917;-79
2023/03/09 00:23:10;;;;;;;;;;;;;;;14.54;52.41;99602.94;5036482;28;19913;-79
2023/03/09 00:26:09;;;;;;;;;;;;;;;14.59;52.54;99599.09;5035304;28;19917;-79
2023/03/09 00:29:01;;;;;;;;;;;;;;;14.62;52.49;99592.88;5033372;28;19917;-79
2023/03/09 00:31:53;;;;;;;;;;;;;;;14.61;52.72;99598.72;5037692;28;19939;-79
2023/03/09 00:34:45;;;;;;;;;;;;;;;14.61;52.13;99596.78;5036278;28;19913;-79
2023/03/09 00:37:37;;;;;;;;;;;;;;;14.69;52.09;99597.66;5039538;28;19913;-80
2023/03/09 00:40:29;;;;;;;;;;;;;;;14.68;52.59;99590.63;5037137;28;19913;-79
2023/03/09 00:43:21;;;;;;;;;;;;;;;14.63;52.41;99586.25;5036572;28;19913;-79
2023/03/09 00:46:12;;;;;;;;;;;;;;;14.55;52.68;99588.09;5037281;28;19913;-79
2023/03/09 00:49:05;;;;;;;;;;;;;;;14.60;52.22;99583.47;5036914;28;19921;-79
2023/03/09 00:51:57;;;;;;;;;;;;;;;14.34;52.71;99590.47;5040494;28;19913;-79
2023/03/09 00:54:52;;;;;;;;;;;;;;;14.50;52.85;99580.22;5036481;28;19921;-79
2023/03/09 00:57:42;;;;;;;;;;;;;;;14.45;53.46;99572.31;5040111;28;19913;-79
2023/03/09 01:00:34;;;;;;;;;;;;;;;14.27;54.56;99575.94;5037917;28;19913;-80
2023/03/09 01:03:26;;;;;;;;;;;;;;;14.42;54.15;99572.28;5036116;28;19913;-79
2023/03/09 01:06:15;;;;;;;;;;;;;;;14.44;53.80;99568.00;5034882;28;19913;-80
2023/03/09 01:09:07;;;;;;;;;;;;;;;14.42;54.36;99561.34;5031537;28;19917;-80
2023/03/09 01:11:59;;;;;;;;;;;;;;;14.38;54.72;99555.00;5039619;28;19913;-79
2023/03/09 01:14:51;;;;;;;;;;;;;;;14.37;54.73;99554.25;5039125;28;19913;-79
2023/03/09 01:17:42;;;;;;;;;;;;;;;14.26;55.06;99547.78;5048320;28;19913;-80
2023/03/09 01:20:34;;;;;;;;;;;;;;;14.37;54.86;99559.72;5039679;28;19913;-79
2023/03/09 01:23:24;;;;;;;;;;;;;;;14.40;54.60;99560.91;5036577;28;19913;-79
2023/03/09 01:26:16;;;;;;;;;;;;;;;14.32;55.23;99567.41;5033582;28;19913;-79
2023/03/09 01:29:08;;;;;;;;;;;;;;;14.29;55.40;99555.25;5030334;28;19921;-79
2023/03/09 01:31:57;;;;;;;;;;;;;;;14.25;55.37;99556.34;5034457;28;20278;-79
2023/03/09 01:34:49;;;;;;;;;;;;;;;14.08;55.89;99568.59;5017485;28;19917;-79
2023/03/09 01:37:41;;;;;;;;;;;;;;;14.19;55.65;99579.69;5036180;28;19913;-79
2023/03/09 01:40:33;;;;;;;;;;;;;;;14.14;55.76;99583.53;5016710;28;19913;-80
2023/03/09 01:43:31;;;;;;;;;;;;;;;14.27;55.59;99579.44;5031022;28;19913;-79
2023/03/09 01:46:29;;;;;;;;;;;;;;;14.33;55.71;99579.91;5036032;28;19913;-80
2023/03/09 01:49:22;;;;;;;;;;;;;;;14.33;55.76;99568.97;5035247;28;19917;-79
2023/03/09 01:52:21;;;;;;;;;;;;;;;14.30;55.68;99570.50;5038049;28;19913;-79
2023/03/09 01:55:13;;;;;;;;;;;;;;;14.29;55.91;99568.13;5036678;28;19913;-79
2023/03/09 01:58:15;;;;;;;;;;;;;;;14.26;56.05;99571.59;5035282;28;20374;-80
2023/03/09 02:01:07;;;;;;;;;;;;;;;14.34;55.77;99565.88;5036926;28;20370;-79
2023/03/09 02:04:00;;;;;;;;;;;;;;;14.27;56.19;99568.50;5025035;28;19913;-79
2023/03/09 02:06:52;;;;;;;;;;;;;;;14.24;56.47;99571.97;5038131;28;19913;-79
2023/03/09 02:09:58;;;;;;;;;;;;;;;14.21;56.38;99558.25;5050080;28;20332;-80
2023/03/09 02:12:52;;;;;;;;;;;;;;;14.22;56.17;99570.78;5052934;28;19913;-79
2023/03/09 02:15:45;;;;;;;;;;;;;;;14.14;56.18;99561.66;5036429;28;19913;-79
2023/03/09 02:18:37;;;;;;;;;;;;;;;14.16;56.71;99542.94;5034655;28;19917;-79
2023/03/09 02:21:53;;;;;;;;;;;;;;;14.19;56.43;99535.94;5038424;28;19913;-79
2023/03/09 02:24:46;;;;;;;;;;;;;;;14.22;55.99;99514.13;5034348;28;20393;-79
2023/03/09 02:27:36;;;;;;;;;;;;;;;14.26;55.77;99506.78;5038313;28;20405;-79
2023/03/09 02:30:30;;;;;;;;;;;;;;;14.15;56.32;99524.97;5036019;28;19916;-79
2023/03/09 02:33:31;;;;;;;;;;;;;;;14.15;56.35;99541.38;5034868;28;19913;-79
2023/03/09 02:36:23;;;;;;;;;;;;;;;14.13;56.46;99530.78;5036858;28;19913;-79
2023/03/09 02:39:24;;;;;;;;;;;;;;;14.18;56.10;99529.69;5034755;28;20309;-80
2023/03/09 02:42:16;;;;;;;;;;;;;;;14.15;56.55;99519.50;5052093;28;20297;-79
2023/03/09 02:45:08;;;;;;;;;;;;;;;14.18;56.43;99502.34;5035097;28;19917;-79
2023/03/09 02:48:01;;;;;;;;;;;;;;;14.10;56.86;99506.13;5039063;28;19917;-79
2023/03/09 02:50:53;;;;;;;;;;;;;;;14.12;56.68;99501.06;5032317;28;19924;-79
2023/03/09 02:53:45;;;;;;;;;;;;;;;14.06;57.06;99497.09;5024144;28;19913;-79
2023/03/09 02:56:37;;;;;;;;;;;;;;;14.08;56.81;99514.69;5027502;28;19913;-79
2023/03/09 02:59:30;;;;;;;;;;;;;;;14.05;56.54;99503.72;5039459;28;20172;-79
2023/03/09 03:02:22;;;;;;;;;;;;;;;14.05;56.88;99512.72;5030811;28;19913;-79
2023/03/09 03:05:14;;;;;;;;;;;;;;;14.08;56.77;99513.91;5037013;28;19913;-79
2023/03/09 03:08:06;;;;;;;;;;;;;;;13.91;57.20;99519.91;5037406;28;19925;-79
2023/03/09 03:10:58;;;;;;;;;;;;;;;14.01;57.35;99516.56;5041657;28;20306;-79
2023/03/09 03:13:50;;;;;;;;;;;;;;;13.78;58.06;99511.09;5038552;28;19913;-79
2023/03/09 03:16:39;;;;;;;;;;;;;;;13.87;57.91;99513.56;5037314;28;19921;-80
2023/03/09 03:19:32;;;;;;;;;;;;;;;13.78;57.84;99515.78;5040970;28;19913;-79
2023/03/09 03:22:24;;;;;;;;;;;;;;;13.86;58.00;99512.03;5039036;28;19921;-79
2023/03/09 03:25:16;;;;;;;;;;;;;;;13.90;57.52;99502.72;5017960;28;20390;-79
2023/03/09 03:28:09;;;;;;;;;;;;;;;13.87;57.65;99513.56;5027299;28;19921;-80
2023/03/09 03:31:01;;;;;;;;;;;;;;;13.93;57.17;99506.66;5035064;28;19912;-79
2023/03/09 03:33:53;;;;;;;;;;;;;;;13.89;57.31;99501.13;5040078;28;19913;-79
2023/03/09 03:36:45;;;;;;;;;;;;;;;13.89;56.81;99495.66;5040446;28;19912;-79
2023/03/09 03:39:37;;;;;;;;;;;;;;;13.87;57.27;99491.72;5037788;28;19913;-79
2023/03/09 03:42:29;;;;;;;;;;;;;;;13.84;57.36;99497.91;5041691;28;19913;-79
2023/03/09 03:45:21;;;;;;;;;;;;;;;13.88;57.49;99510.47;5038619;28;19913;-79
2023/03/09 03:48:13;;;;;;;;;;;;;;;13.84;57.69;99514.31;5036249;28;19921;-79
2023/03/09 03:51:05;;;;;;;;;;;;;;;13.81;57.65;99506.88;5036882;28;19913;-79
2023/03/09 03:53:57;;;;;;;;;;;;;;;13.84;58.07;99511.59;5037578;28;19913;-79
2023/03/09 03:56:49;;;;;;;;;;;;;;;13.80;58.23;99521.69;5041178;28;19912;-79
2023/03/09 03:59:41;;;;;;;;;;;;;;;13.78;58.08;99516.56;5039027;28;19917;-79
2023/03/09 04:02:33;;;;;;;;;;;;;;;13.73;58.10;99516.09;5036387;28;19917;-79
2023/03/09 04:05:25;;;;;;;;;;;;;;;13.64;58.36;99516.34;5040684;28;19913;-79
2023/03/09 04:08:17;;;;;;;;;;;;;;;13.80;57.53;99513.47;5037558;28;19916;-79
2023/03/09 04:11:10;;;;;;;;;;;;;;;14.04;57.22;99515.81;5035765;28;20305;-79
2023/03/09 04:14:04;;;;;;;;;;;;;;;13.86;57.52;99512.81;5037811;28;19913;-79
2023/03/09 04:16:56;;;;;;;;;;;;;;;13.83;57.52;99510.78;5036753;28;20381;-79
2023/03/09 04:19:49;;;;;;;;;;;;;;;13.84;57.66;99509.66;5040242;28;20304;-79
2023/03/09 04:22:41;;;;;;;;;;;;;;;13.79;57.90;99514.63;5038320;28;20300;-79
2023/03/09 04:25:31;;;;;;;;;;;;;;;13.74;58.07;99531.31;5035990;28;19913;-79
2023/03/09 04:28:24;;;;;;;;;;;;;;;13.73;58.38;99530.53;5038704;28;19936;-79
2023/03/09 04:31:16;;;;;;;;;;;;;;;13.65;58.51;99535.09;5018571;28;20370;-79
2023/03/09 04:34:08;;;;;;;;;;;;;;;13.60;58.72;99529.94;5035082;28;20374;-79
2023/03/09 04:37:00;;;;;;;;;;;;;;;13.53;58.83;99524.34;5031342;28;19913;-79
2023/03/09 04:39:52;;;;;;;;;;;;;;;13.46;58.89;99516.00;5031935;28;19913;-79
2023/03/09 04:42:44;;;;;;;;;;;;;;;13.50;58.80;99514.16;5032076;28;19913;-79
2023/03/09 04:45:37;;;;;;;;;;;;;;;13.57;58.57;99505.28;5034173;28;19913;-79
2023/03/09 04:48:29;;;;;;;;;;;;;;;13.48;58.68;99508.25;5033973;28;19921;-79
2023/03/09 04:51:21;;;;;;;;;;;;;;;13.39;58.83;99512.38;5032117;28;19921;-79
2023/03/09 04:54:14;;;;;;;;;;;;;;;13.46;58.37;99510.56;5030805;28;19913;-79
2023/03/09 04:57:08;;;;;;;;;;;;;;;13.38;58.94;99514.31;5032046;28;19913;-79
2023/03/09 05:00:01;;;;;;;;;;;;;;;13.45;59.10;99509.00;5034537;28;19921;-80
2023/03/09 05:02:56;;;;;;;;;;;;;;;13.57;58.39;99505.28;5035163;28;19913;-79
2023/03/09 05:05:48;;;;;;;;;;;;;;;13.74;57.73;99504.00;5044066;28;20378;-79
2023/03/09 05:08:40;;;;;;;;;;;;;;;13.63;57.83;99490.97;5034110;28;19917;-79
2023/03/09 05:11:32;;;;;;;;;;;;;;;13.56;57.85;99501.00;5046475;28;19917;-79
2023/03/09 05:14:25;;;;;;;;;;;;;;;13.51;58.02;99507.53;5034421;28;19913;-79
2023/03/09 05:17:16;;;;;;;;;;;;;;;13.49;58.37;99504.38;5032913;28;19913;-79
2023/03/09 05:20:09;;;;;;;;;;;;;;;13.50;58.23;99503.22;5032869;28;19912;-79
2023/03/09 05:23:02;;;;;;;;;;;;;;;13.41;58.39;99502.66;5019140;28;19918;-79
2023/03/09 05:26:02;;;;;;;;;;;;;;;13.37;58.60;99503.75;5034020;28;20381;-79
2023/03/09 05:28:54;;;;;;;;;;;;;;;13.48;58.18;99502.00;5030648;28;19916;-79
2023/03/09 05:31:46;;;;;;;;;;;;;;;13.43;58.44;99497.63;5034171;28;19913;-80
2023/03/09 05:34:38;;;;;;;;;;;;;;;13.18;59.30;99504.59;5029855;28;19913;-79
2023/03/09 05:37:31;;;;;;;;;;;;;;;13.16;58.77;99502.22;5032455;28;19913;-79
2023/03/09 05:40:23;;;;;;;;;;;;;;;13.24;58.79;99497.69;5053831;28;19913;-79
2023/03/09 05:43:18;;;;;;;;;;;;;;;13.31;58.62;99500.53;5035996;28;19913;-79
2023/03/09 05:46:10;;;;;;;;;;;;;;;13.23;58.43;99504.31;5036629;28;19916;-80
2023/03/09 05:49:02;;;;;;;;;;;;;;;13.37;57.82;99501.03;5054022;28;19921;-79
2023/03/09 05:51:53;;;;;;;;;;;;;;;13.38;57.85;99508.88;5037497;28;19913;-82
2023/03/09 05:54:49;;;;;;;;;;;;;;;13.28;57.74;99509.47;5090655;23;19913;31
2023/03/09 05:57:43;;;;;;;;;;;;;;;13.50;56.92;99500.50;4951563;29;19922;-81
2023/03/09 06:00:34;;;;;;;;;;;;;;;13.32;57.49;99498.59;4973943;28;19914;-79
2023/03/09 06:03:27;;;;;;;;;;;;;;;13.30;57.49;99498.97;4972711;28;19915;-79
2023/03/09 06:06:20;;;;;;;;;;;;;;;13.26;57.50;99500.84;4963603;28;20371;-80
2023/03/09 06:09:12;;;;;;;;;;;;;;;13.24;57.97;99506.69;4949723;29;20295;-81
2023/03/09 06:12:04;;;;;;;;;;;;;;;13.20;57.97;99496.84;4965959;28;19915;-80
2023/03/09 06:14:56;;;;;;;;;;;;;;;13.18;58.60;99494.47;4950693;29;20379;-80
2023/03/09 06:17:48;;;;;;;;;;;;;;;13.27;58.11;99500.47;4952876;28;19915;-79
2023/03/09 06:20:42;;;;;;;;;;;;;;;13.31;57.95;99500.53;4965429;28;19915;-81
2023/03/09 06:23:35;;;;;;;;;;;;;;;13.26;58.26;99496.16;4963325;28;19919;-80
2023/03/09 06:26:28;;;;;;;;;;;;;;;13.22;58.32;99489.84;4962419;28;19914;-81
2023/03/09 06:29:22;;;;;;;;;;;;;;;13.29;58.24;99497.41;4964472;28;19919;-80
2023/03/09 06:32:15;;;;;;;;;;;;;;;13.31;58.30;99497.03;4959713;28;19930;-82
2023/03/09 06:35:07;;;;;;;;;;;;;;;13.32;58.23;99493.94;4967902;28;19914;-82
2023/03/09 06:37:59;;;;;;;;;;;;;;;13.34;58.09;99486.16;4952325;28;20380;-80
2023/03/09 06:40:48;;;;;;;;;;;;;;;13.46;58.42;99487.94;4968702;28;19915;-82
2023/03/09 06:43:40;;;;;;;;;;;;;;;13.49;58.63;99479.00;4961972;28;19915;-82
2023/03/09 06:46:32;;;;;;;;;;;;;;;13.56;58.55;99477.16;4971331;28;19915;-82
2023/03/09 06:49:24;;;;;;;;;;;;;;;13.55;59.06;99472.88;4963567;28;19918;-83
2023/03/09 06:52:17;;;;;;;;;;;;;;;13.56;58.64;99471.72;4975345;28;19915;-85
2023/03/09 06:55:06;;;;;;;;;;;;;;;13.55;58.81;99481.09;4949254;29;19915;-83
2023/03/09 06:57:59;;;;;;;;;;;;;;;13.63;58.31;99496.41;4970236;28;19918;-84
2023/03/09 07:00:51;;;;;;;;;;;;;;;13.64;58.26;99489.81;4963359;28;19915;-86
2023/03/09 07:03:41;;;;;;;;;;;;;;;13.69;58.15;99497.69;4959726;28;19914;-86
2023/03/09 07:06:33;;;;;;;;;;;;;;;13.64;58.78;99500.75;4961026;28;19914;-85
2023/03/09 07:09:21;;;;;;;;;;;;;;;13.62;59.08;99504.97;4967242;28;19918;-86
2023/03/09 07:12:10;;;;;;;;;;;;;;;13.66;59.57;99514.03;4970169;28;19914;-85
2023/03/09 07:15:04;;;;;;;;;;;;;;;13.65;59.70;99510.53;4968308;28;20541;-86
2023/03/09 07:17:56;;;;;;;;;;;;;;;13.61;59.97;99517.06;4968793;28;20541;-86
2023/03/09 07:20:48;;;;;;;;;;;;;;;13.68;60.11;99520.69;4968116;28;20453;-86
2023/03/09 07:23:36;;;;;;;;;;;;;;;13.73;60.25;99522.34;4966891;28;19915;-85
2023/03/09 07:26:27;;;;;;;;;;;;;;;13.74;60.28;99514.94;4961400;28;20292;-86
2023/03/09 07:29:19;;;;;;;;;;;;;;;13.82;60.17;99514.66;4966954;28;19922;-84
2023/03/09 07:32:11;;;;;;;;;;;;;;;13.93;60.05;99520.31;4966660;28;19914;-88
2023/03/09 07:35:03;;;;;;;;;;;;;;;13.90;60.38;99523.78;4966834;28;20316;-86
2023/03/09 07:37:53;;;;;;;;;;;;;;;13.99;60.34;99527.06;4964886;28;19915;-86
2023/03/09 07:40:46;;;;;;;;;;;;;;;14.07;60.41;99528.72;4962133;28;20380;-86
2023/03/09 07:43:35;;;;;;;;;;;;;;;14.22;60.36;99529.75;4965723;28;19914;-85
2023/03/09 07:46:31;;;;;;;;;;;;;;;14.26;60.07;99538.78;4945928;29;19914;-85
2023/03/09 07:49:23;;;;;;;;;;;;;;;14.43;59.66;99541.00;4966159;28;20331;-85
2023/03/09 07:52:12;;;;;;;;;;;;;;;14.41;59.49;99535.94;4964358;28;19914;-86
2023/03/09 07:55:04;;;;;;;;;;;;;;;14.46;59.23;99538.34;4964785;28;19914;-84
2023/03/09 07:57:57;;;;;;;;;;;;;;;14.44;59.05;99532.44;4965736;28;19910;-83
2023/03/09 08:00:49;;;;;;;;;;;;;;;14.44;59.84;99532.44;4965079;28;19915;-85
2023/03/09 08:03:41;;;;;;;;;;;;;;;14.43;59.34;99530.06;4960576;28;19915;-83
2023/03/09 08:06:28;;;;;;;;;;;;;;;14.40;59.27;99533.56;4959592;28;19915;-84
2023/03/09 08:09:17;;;;;;;;;;;;;;;14.38;59.50;99539.38;4960577;28;19985;-84
2023/03/09 08:12:09;;;;;;;;;;;;;;;14.52;59.15;99536.06;4958973;28;19918;-85
2023/03/09 08:14:59;;;;;;;;;;;;;;;14.52;59.32;99545.06;4962558;28;20379;-83
2023/03/09 08:17:53;;;;;;;;;;;;;;;14.61;59.29;99544.00;4961135;28;19914;-84
2023/03/09 08:20:45;;;;;;;;;;;;;;;14.62;58.68;99540.91;4965135;28;19914;-86
2023/03/09 08:23:37;;;;;;;;;;;;;;;14.54;58.63;99540.00;4961757;28;20364;-83
2023/03/09 08:26:29;;;;;;;;;;;;;;;14.66;58.54;99557.34;4958154;28;19918;-83
2023/03/09 08:29:21;;;;;;;;;;;;;;;14.64;58.73;99549.50;4962077;28;19918;-84
2023/03/09 08:32:13;;;;;;;;;;;;;;;14.78;58.17;99551.66;4963246;28;20287;-83
2023/03/09 08:35:05;;;;;;;;;;;;;;;14.86;58.19;99550.59;4962480;28;20303;-83
2023/03/09 08:37:58;;;;;;;;;;;;;;;14.88;58.04;99553.75;4962642;28;19915;-83
2023/03/09 08:40:50;;;;;;;;;;;;;;;14.95;57.89;99553.81;4962666;28;19918;-84
2023/03/09 08:43:39;;;;;;;;;;;;;;;14.83;55.50;99554.06;4962535;28;19914;-84
2023/03/09 08:46:32;;;;;;;;;;;;;;;14.75;55.28;99560.59;4957433;28;19914;-84
2023/03/09 08:49:24;;;;;;;;;;;;;;;14.78;55.04;99557.13;4957387;28;19919;-84
2023/03/09 08:52:13;;;;;;;;;;;;;;;14.89;55.06;99558.03;4962151;28;19914;-85
2023/03/09 08:55:06;;;;;;;;;;;;;;;14.89;54.89;99566.25;4960802;28;19914;-81
2023/03/09 08:57:55;;;;;;;;;;;;;;;14.94;54.88;99554.97;4956892;28;19914;-84
2023/03/09 09:00:47;;;;;;;;;;;;;;;14.94;54.69;99563.97;4961939;28;19915;-82
2023/03/09 09:03:39;;;;;;;;;;;;;;;15.00;54.17;99569.91;4961802;28;19918;-82
2023/03/09 09:06:29;;;;;;;;;;;;;;;15.02;54.27;99570.34;4956659;28;19914;-82
2023/03/09 09:09:20;;;;;;;;;;;;;;;15.18;54.13;99573.69;4962185;28;20295;-83
2023/03/09 09:12:10;;;;;;;;;;;;;;;15.25;53.14;99581.16;4957612;28;19914;-85
2023/03/09 09:15:02;;;;;;;;;;;;;;;15.37;52.60;99576.22;4959114;28;19918;-82
2023/03/09 09:17:54;;;;;;;;;;;;;;;15.35;52.27;99592.25;4958984;28;19918;-84
2023/03/09 09:20:46;;;;;;;;;;;;;;;15.36;52.22;99584.81;4962933;28;19914;-83
2023/03/09 09:23:38;;;;;;;;;;;;;;;15.52;52.69;99587.38;4972305;28;20388;-84
2023/03/09 09:26:30;;;;;;;;;;;;;;;15.57;52.43;99587.81;4955893;28;19929;-84
2023/03/09 09:29:20;;;;;;;;;;;;;;;15.47;52.07;99591.19;4957553;28;19922;-84
2023/03/09 09:32:12;;;;;;;;;;;;;;;15.47;51.95;99593.16;4949262;28;19915;-85
2023/03/09 09:35:01;;;;;;;;;;;;;;;15.49;52.22;99588.09;4954431;28;19914;-86
2023/03/09 09:37:54;;;;;;;;;;;;;;;15.52;52.30;99584.63;4967111;28;19914;-85
2023/03/09 09:40:46;;;;;;;;;;;;;;;15.55;51.87;99583.88;4964600;28;19914;-86
2023/03/09 09:43:38;;;;;;;;;;;;;;;15.65;51.79;99585.91;4962763;28;19915;-85
2023/03/09 09:46:31;;;;;;;;;;;;;;;15.71;51.50;99585.22;4963470;28;19918;-85
2023/03/09 09:49:25;;;;;;;;;;;;;;;15.77;50.73;99580.19;4962716;28;20291;-84
2023/03/09 09:52:18;;;;;;;;;;;;;;;15.85;50.74;99592.78;4965818;28;20317;-83
2023/03/09 09:55:23;;;;;;;;;;;;;;;15.87;50.82;99582.22;4965097;28;20323;-84
2023/03/09 09:58:29;;;;;;;;;;;;;;;15.88;50.59;99591.25;4968539;28;19914;-86
2023/03/09 10:01:24;;;;;;;;;;;;;;;15.91;50.76;99580.28;4967126;28;19915;-85
2023/03/09 10:04:17;;;;;;;;;;;;;;;16.02;50.60;99572.97;4967464;28;19914;-84
2023/03/09 10:07:12;;;;;;;;;;;;;;;15.99;50.70;99581.16;4958166;28;19915;-86
2023/03/09 10:10:06;;;;;;;;;;;;;;;16.03;50.79;99571.78;4966698;28;19926;-86
2023/03/09 10:12:59;;;;;;;;;;;;;;;16.13;50.65;99582.06;4967305;28;19914;-86
2023/03/09 10:15:54;;;;;;;;;;;;;;;16.09;50.33;99569.50;4963445;28;20315;-86
2023/03/09 10:18:48;;;;;;;;;;;;;;;16.15;50.39;99570.72;4967126;28;19918;-86
2023/03/09 10:21:50;;;;;;;;;;;;;;;16.22;50.41;99563.31;4966150;28;19918;-85
2023/03/09 10:24:50;;;;;;;;;;;;;;;16.16;50.43;99558.56;4967158;28;19915;-84
2023/03/09 10:27:48;;;;;;;;;;;;;;;16.26;50.36;99568.81;4959173;28;19914;-84
2023/03/09 10:30:47;;;;;;;;;;;;;;;16.27;50.45;99567.66;4966072;28;20572;-84
2023/03/09 10:33:47;;;;;;;;;;;;;;;16.37;50.18;99566.16;4956547;28;19918;-83
2023/03/09 10:36:41;;;;;;;;;;;;;;;16.38;49.45;99576.75;4957974;28;19918;-85
2023/03/09 10:39:34;;;;;;;;;;;;;;;16.47;49.57;99584.66;4959533;28;19914;-83
2023/03/09 10:42:26;;;;;;;;;;;;;;;16.61;49.18;99577.31;4962581;28;19918;-83
2023/03/09 10:45:32;;;;;;;;;;;;;;;16.65;49.12;99580.09;4962586;28;19914;-83
2023/03/09 10:48:26;;;;;;;;;;;;;;;16.72;48.83;99573.84;4963225;28;19915;-83
2023/03/09 10:51:35;;;;;;;;;;;;;;;16.80;49.48;99570.78;4958079;28;20387;-83
2023/03/09 10:54:27;;;;;;;;;;;;;;;16.81;48.86;99575.06;4964600;28;19914;-85
2023/03/09 10:57:25;;;;;;;;;;;;;;;16.76;48.99;99583.66;4965039;28;19914;-86
2023/03/09 11:00:18;;;;;;;;;;;;;;;16.81;49.16;99568.81;4960703;28;19914;-85
2023/03/09 11:03:21;;;;;;;;;;;;;;;16.88;49.40;99561.38;4965053;28;19918;-86
2023/03/09 11:06:30;;;;;;;;;;;;;;;17.06;48.92;99570.50;4964020;28;19914;-84
2023/03/09 11:09:27;;;;;;;;;;;;;;;16.97;48.79;99569.25;4957876;28;19918;-82
2023/03/09 11:12:20;;;;;;;;;;;;;;;16.95;48.03;99566.13;4961315;28;19918;-83
2023/03/09 11:15:16;;;;;;;;;;;;;;;16.91;48.10;99570.81;4959207;28;19914;-83
2023/03/09 11:18:25;;;;;;;;;;;;;;;17.03;48.14;99562.22;4962048;28;19914;-83
2023/03/09 11:21:26;;;;;;;;;;;;;;;17.01;47.91;99570.09;4959593;28;20380;-83
2023/03/09 11:24:19;;;;;;;;;;;;;;;16.94;47.43;99562.59;4962308;28;19914;-85
2023/03/09 11:27:15;;;;;;;;;;;;;;;17.05;47.46;99566.19;4964394;28;19915;-83
2023/03/09 11:30:13;;;;;;;;;;;;;;;17.08;47.03;99553.63;4963649;28;20291;-83
2023/03/09 11:33:06;;;;;;;;;;;;;;;17.14;47.31;99563.06;4963921;28;20291;-83
2023/03/09 11:35:57;;;;;;;;;;;;;;;17.20;47.25;99560.72;4960120;28;19915;-82
2023/03/09 11:38:49;;;;;;;;;;;;;;;17.26;47.22;99564.69;4957137;28;19914;-81
2023/03/09 11:41:45;;;;;;;;;;;;;;;17.41;47.26;99552.53;4960368;28;19914;-82
2023/03/09 11:44:39;;;;;;;;;;;;;;;17.34;46.71;99556.06;4958066;28;19914;-81
2023/03/09 11:47:36;;;;;;;;;;;;;;;17.49;46.99;99573.38;4963362;28;19914;-82
2023/03/09 11:50:29;;;;;;;;;;;;;;;17.48;47.18;99558.03;4963067;28;20287;-83
2023/03/09 11:53:51;;;;;;;;;;;;;;;17.57;47.26;99557.69;4962217;28;19918;-83
2023/03/09 11:56:40;;;;;;;;;;;;;;;17.63;46.55;99556.13;4933793;29;19918;-81
2023/03/09 11:59:39;;;;;;;;;;;;;;;17.66;46.54;99553.41;4963157;28;19915;-83
2023/03/09 12:02:47;;;;;;;;;;;;;;;17.70;46.71;99562.44;4960155;28;19915;-82
2023/03/09 12:05:40;;;;;;;;;;;;;;;17.79;46.05;99560.09;4957147;28;19914;-84
2023/03/09 12:08:37;;;;;;;;;;;;;;;26.64;30.64;99571.34;4961613;28;19915;-81
2023/03/09 12:11:41;;;;;;;;;;;;;;;28.84;25.01;99569.84;4954160;28;19933;-80
2023/03/09 12:14:41;;;;;;;;;;;;;;;31.09;22.27;99575.28;4961058;28;19914;-81
2023/03/09 12:17:37;;;;;;;;;;;;;;;30.32;23.33;99571.69;4959134;28;19918;-83
2023/03/09 12:20:30;;;;;;;;;;;;;;;29.47;23.60;99575.78;4953517;29;20295;-82
2023/03/09 12:23:39;;;;;;;;;;;;;;;28.13;25.27;99566.50;4959424;28;19933;-81
2023/03/09 12:26:32;;;;;;;;;;;;;;;32.59;20.54;99566.31;4951660;29;19914;-80
2023/03/09 12:29:25;;;;;;;;;;;;;;;33.51;19.13;99566.25;4957263;28;19919;-82
2023/03/09 12:32:19;;;;;;;;;;;;;;;33.64;18.56;99557.38;4958484;28;20529;-82
2023/03/09 12:35:35;;;;;;;;;;;;;;;33.97;18.07;99554.03;4965913;28;20299;-80
2023/03/09 12:38:27;;;;;;;;;;;;;;;30.94;21.14;99554.78;4944308;29;20291;-80
2023/03/09 12:41:48;;;;;;;;;;;;;;;33.14;18.88;99556.16;4949447;28;20379;-79
2023/03/09 12:44:50;;;;;;;;;;;;;;;33.90;18.14;99555.28;4958838;28;19919;-80
2023/03/09 12:47:42;;;;;;;;;;;;;;;34.90;17.35;99559.81;4962004;28;19914;-80
2023/03/09 12:50:47;;;;;;;;;;;;;;;34.02;18.12;99546.88;4959501;28;19918;-79
2023/03/09 12:53:57;;;;;;;;;;;;;;;31.64;20.07;99538.16;4957890;28;20368;-80
2023/03/09 12:56:54;;;;;;;;;;;;;;;30.36;21.83;99528.16;4956868;28;19914;-81
2023/03/09 12:59:46;;;;;;;;;;;;;;;30.92;20.72;99540.47;4957463;28;19914;-78
2023/03/09 13:02:38;;;;;;;;;;;;;;;30.02;21.46;99531.53;4960300;28;19914;-80
2023/03/09 13:05:31;;;;;;;;;;;;;;;29.74;21.83;99522.44;4955778;28;19919;-78
2023/03/09 13:08:28;;;;;;;;;;;;;;;28.67;22.76;99515.41;4961461;28;19914;-79
2023/03/09 13:11:31;;;;;;;;;;;;;;;30.17;21.39;99521.13;4970709;28;19922;-81
2023/03/09 13:14:29;;;;;;;;;;;;;;;31.10;20.79;99523.47;4957653;28;19914;-79
2023/03/09 13:17:37;;;;;;;;;;;;;;;29.72;22.44;99517.31;4975947;28;19914;-83
2023/03/09 13:20:40;;;;;;;;;;;;;;;30.44;21.42;99509.69;4956938;28;19914;-79
2023/03/09 13:23:35;;;;;;;;;;;;;;;28.78;23.30;99515.75;4960385;28;20376;-80
2023/03/09 13:26:27;;;;;;;;;;;;;;;29.36;22.91;99520.25;4957803;28;20388;-81
2023/03/09 13:29:23;;;;;;;;;;;;;;;29.96;22.11;99519.41;4960636;28;20376;-80
2023/03/09 13:32:28;;;;;;;;;;;;;;;29.50;23.15;99511.19;4959608;28;19914;-80
2023/03/09 13:35:21;;;;;;;;;;;;;;;28.21;23.37;99505.47;4957121;28;19918;-86
2023/03/09 13:38:22;;;;;;;;;;;;;;;27.46;25.02;99502.91;4961967;28;19914;-85
2023/03/09 13:41:24;;;;;;;;;;;;;;;28.09;24.28;99502.31;4959211;28;19914;-83
2023/03/09 13:44:17;;;;;;;;;;;;;;;27.86;23.72;99500.09;4962632;28;19914;-83
2023/03/09 13:47:19;;;;;;;;;;;;;;;27.61;24.13;99503.91;4959368;28;19922;-82
2023/03/09 13:50:18;;;;;;;;;;;;;;;29.80;22.37;99514.94;4961890;28;19918;-84
2023/03/09 13:53:10;;;;;;;;;;;;;;;29.08;22.25;99510.38;4959478;28;19918;-84
2023/03/09 13:56:01;;;;;;;;;;;;;;;29.93;21.72;99500.72;4957371;28;19914;-83
2023/03/09 13:58:53;;;;;;;;;;;;;;;29.03;22.52;99499.81;4959630;28;19914;-82
2023/03/09 14:01:45;;;;;;;;;;;;;;;27.95;23.32;99494.53;4956644;28;20379;-82
2023/03/09 14:04:45;;;;;;;;;;;;;;;27.09;24.66;99492.78;4959649;29;19914;-82
2023/03/09 14:07:40;;;;;;;;;;;;;;;27.24;25.00;99491.00;4959941;29;19921;-82
2023/03/09 14:10:36;;;;;;;;;;;;;;;26.69;25.25;99490.66;4956782;29;19918;-83
2023/03/09 14:13:27;;;;;;;;;;;;;;;27.29;24.65;99495.22;4960343;29;20319;-85
2023/03/09 14:16:18;;;;;;;;;;;;;;;26.76;24.88;99484.84;4957935;29;19915;-84
2023/03/09 14:19:21;;;;;;;;;;;;;;;25.82;25.98;99495.28;4955369;28;19922;-84
2023/03/09 14:22:16;;;;;;;;;;;;;;;24.82;27.24;99486.44;4958522;29;19914;-83
2023/03/09 14:25:22;;;;;;;;;;;;;;;25.58;26.47;99497.69;4956256;29;20288;-83
2023/03/09 14:28:28;;;;;;;;;;;;;;;24.15;28.87;99482.72;4959125;28;19914;-83
2023/03/09 14:31:20;;;;;;;;;;;;;;;23.26;29.75;99482.06;4956399;29;19922;-83
2023/03/09 14:34:19;;;;;;;;;;;;;;;22.75;30.11;99478.06;4961634;29;19914;-84
2023/03/09 14:37:18;;;;;;;;;;;;;;;22.84;30.19;99481.03;4961685;28;19914;-83
2023/03/09 14:40:21;;;;;;;;;;;;;;;22.61;30.42;99476.31;4956495;28;19914;-84
2023/03/09 14:43:29;;;;;;;;;;;;;;;22.86;30.40;99472.25;4957010;29;19914;-84
2023/03/09 14:46:24;;;;;;;;;;;;;;;22.60;30.80;99474.75;4952117;29;19914;-84
2023/03/09 14:49:16;;;;;;;;;;;;;;;22.57;30.63;99469.28;4958505;28;19914;-83
2023/03/09 14:52:06;;;;;;;;;;;;;;;22.22;31.31;99464.44;4961270;29;19914;-83
2023/03/09 14:54:59;;;;;;;;;;;;;;;22.30;31.29;99468.66;4963419;28;19914;-84
2023/03/09 14:57:51;;;;;;;;;;;;;;;22.38;30.97;99475.59;4964518;28;19914;-83
2023/03/09 15:00:43;;;;;;;;;;;;;;;22.13;31.27;99476.84;4957852;28;19914;-82
2023/03/09 15:03:35;;;;;;;;;;;;;;;21.94;32.27;99474.03;4961733;28;19915;-82
2023/03/09 15:06:27;;;;;;;;;;;;;;;21.71;33.12;99478.34;4962616;28;19915;-82
2023/03/09 15:09:20;;;;;;;;;;;;;;;21.44;34.11;99474.81;4962817;28;20376;-83